Time;durP1;ratioP1;P1;durP2;ratioP2;P2;SDS_P1;SDS_P2;PMS_P1;PMS_P2;Temp;Humidity;BMP_temperature;BMP_pressure;BME280_temperature;BME280_humidity;BME280_pressure;Samples;Min_cycle;Max_cycle;Signal;HPM_P1;HPM_P2
2021/05/10 00:01:56;;;;;;;4.70;4.10;;;20.20;95.40;;;;;;4112738;28;20869;-84
2021/05/10 00:03:58;;;;;;;5.00;4.50;;;20.20;95.30;;;;;;4113253;28;20523;-84
2021/05/10 00:06:00;;;;;;;4.37;3.97;;;20.20;95.50;;;;;;4312937;23;20527;-83
2021/05/10 00:08:02;;;;;;;5.43;4.23;;;20.10;95.50;;;;;;4118307;28;20583;-82
2021/05/10 00:10:05;;;;;;;4.60;4.20;;;20.10;95.50;;;;;;4119354;28;20487;-83
2021/05/10 00:12:09;;;;;;;5.73;4.70;;;20.00;95.40;;;;;;4117678;28;20496;-83
2021/05/10 00:14:11;;;;;;;5.80;4.50;;;20.10;95.00;;;;;;4118517;28;20487;-82
2021/05/10 00:16:13;;;;;;;4.63;4.13;;;20.10;94.70;;;;;;4110581;28;20502;-82
2021/05/10 00:18:16;;;;;;;5.20;4.80;;;20.20;94.10;;;;;;4109807;28;20551;-83
2021/05/10 00:20:18;;;;;;;4.57;4.13;;;20.20;93.90;;;;;;4110385;28;20514;-82
2021/05/10 00:22:21;;;;;;;4.40;4.00;;;20.20;93.50;;;;;;4109796;28;20823;-82
2021/05/10 00:24:23;;;;;;;5.30;4.60;;;20.20;93.30;;;;;;4110654;28;20488;-82
2021/05/10 00:26:25;;;;;;;5.00;4.50;;;20.20;93.40;;;;;;4112806;28;20507;-82
2021/05/10 00:28:28;;;;;;;5.00;4.50;;;20.20;93.10;;;;;;4110799;28;20494;-84
2021/05/10 00:30:30;;;;;;;4.80;4.40;;;20.20;92.50;;;;;;4111281;28;20496;-85
2021/05/10 00:32:32;;;;;;;4.80;4.40;;;20.20;92.50;;;;;;4112987;28;20502;-84
2021/05/10 00:34:35;;;;;;;6.53;5.13;;;20.10;92.40;;;;;;4113864;28;21192;-85
2021/05/10 00:36:37;;;;;;;6.80;4.67;;;20.10;92.10;;;;;;4111084;28;20559;-82
2021/05/10 00:38:39;;;;;;;6.67;4.10;;;20.10;91.80;;;;;;4114873;28;20495;-82
2021/05/10 00:40:40;;;;;;;4.43;4.03;;;20.10;91.50;;;;;;4111653;28;20496;-82
2021/05/10 00:42:43;;;;;;;4.53;4.13;;;20.10;91.10;;;;;;4113104;28;20587;-83
2021/05/10 00:44:45;;;;;;;4.27;3.93;;;20.10;90.70;;;;;;4113369;28;20496;-82
2021/05/10 00:46:48;;;;;;;4.70;4.30;;;20.20;90.10;;;;;;4114859;28;21106;-82
2021/05/10 00:48:50;;;;;;;4.13;3.83;;;20.20;89.90;;;;;;4100691;28;20525;-82
2021/05/10 00:50:52;;;;;;;4.83;4.43;;;20.10;89.70;;;;;;4112923;28;20491;-83
2021/05/10 00:52:54;;;;;;;6.27;4.27;;;20.20;89.40;;;;;;4113474;28;20519;-84
2021/05/10 00:54:55;;;;;;;4.50;4.10;;;20.20;89.50;;;;;;4113668;28;20547;-82
2021/05/10 00:56:58;;;;;;;4.40;3.93;;;20.20;89.40;;;;;;4114709;28;20499;-83
2021/05/10 00:59:00;;;;;;;5.37;4.00;;;20.10;89.80;;;;;;4112560;28;20843;-83
2021/05/10 01:01:03;;;;;;;5.07;4.00;;;20.00;90.00;;;;;;4112423;28;20842;-83
2021/05/10 01:03:05;;;;;;;4.37;3.97;;;19.90;90.50;;;;;;4113499;28;20488;-82
2021/05/10 01:05:08;;;;;;;4.60;4.20;;;19.90;91.20;;;;;;4113106;28;20586;-82
2021/05/10 01:07:11;;;;;;;4.80;4.07;;;19.80;91.20;;;;;;4108601;28;20493;-82
2021/05/10 01:09:12;;;;;;;4.20;3.80;;;19.80;91.10;;;;;;4112797;28;20499;-82
2021/05/10 01:11:15;;;;;;;5.30;4.80;;;19.80;91.20;;;;;;4109346;28;20492;-85
2021/05/10 01:13:17;;;;;;;5.20;4.47;;;19.80;91.00;;;;;;4113322;28;20507;-83
2021/05/10 01:15:21;;;;;;;4.53;4.13;;;19.80;91.00;;;;;;4113538;28;20500;-83
2021/05/10 01:17:24;;;;;;;3.90;3.50;;;19.80;90.70;;;;;;4114979;28;20496;-83
2021/05/10 01:19:27;;;;;;;4.60;4.20;;;19.80;90.50;;;;;;4108031;28;21083;-83
2021/05/10 01:21:30;;;;;;;5.03;4.53;;;19.70;90.90;;;;;;4112102;28;20496;-83
2021/05/10 01:23:33;;;;;;;4.97;3.90;;;19.60;90.80;;;;;;4112530;28;20496;-83
2021/05/10 01:25:35;;;;;;;4.70;4.30;;;19.60;90.80;;;;;;4113775;28;20528;-83
2021/05/10 01:27:37;;;;;;;4.73;4.33;;;19.60;90.70;;;;;;4113399;28;20530;-84
2021/05/10 01:29:39;;;;;;;4.57;4.17;;;19.60;91.00;;;;;;4117548;28;20518;-83
2021/05/10 01:31:41;;;;;;;5.20;4.53;;;19.50;91.00;;;;;;4117121;28;20487;-82
2021/05/10 01:33:43;;;;;;;5.00;4.50;;;19.50;90.90;;;;;;4116913;28;20515;-83
2021/05/10 01:35:48;;;;;;;6.77;4.00;;;19.50;90.70;;;;;;4117901;28;20495;-82
2021/05/10 01:37:50;;;;;;;4.70;4.30;;;19.50;90.90;;;;;;4118019;28;20503;-82
2021/05/10 01:39:53;;;;;;;6.53;4.27;;;19.40;91.10;;;;;;4116252;28;20492;-82
2021/05/10 01:41:55;;;;;;;6.10;5.17;;;19.40;91.20;;;;;;4115558;28;20943;-84
2021/05/10 01:43:57;;;;;;;5.53;3.90;;;19.40;91.10;;;;;;4112427;28;20493;-83
2021/05/10 01:45:58;;;;;;;5.03;4.63;;;19.30;91.30;;;;;;4113738;28;20487;-84
2021/05/10 01:48:02;;;;;;;4.93;4.30;;;19.30;91.20;;;;;;4114838;28;20500;-85
2021/05/10 01:50:12;;;;;;;4.43;4.00;;;19.30;91.60;;;;;;4113858;28;20496;-84
2021/05/10 01:52:15;;;;;;;4.53;4.13;;;19.30;91.60;;;;;;4110973;28;20530;-84
2021/05/10 01:54:19;;;;;;;4.50;4.10;;;19.30;91.70;;;;;;4112557;28;20504;-83
2021/05/10 01:56:22;;;;;;;4.67;4.17;;;19.30;91.90;;;;;;4114303;28;21027;-84
2021/05/10 01:58:24;;;;;;;7.10;4.03;;;19.20;92.10;;;;;;4112765;28;21004;-84
2021/05/10 02:00:27;;;;;;;5.10;4.33;;;19.10;92.30;;;;;;4112086;28;20861;-83
2021/05/10 02:02:29;;;;;;;6.23;4.40;;;19.10;92.00;;;;;;4110680;28;20495;-83
2021/05/10 02:05:07;;;;;;;5.87;4.30;;;19.10;92.00;;;;;;4111857;28;20530;-84
2021/05/10 02:07:09;;;;;;;4.33;3.93;;;19.10;92.20;;;;;;4114208;28;20514;-85
2021/05/10 02:09:11;;;;;;;4.83;4.43;;;19.00;92.30;;;;;;4111958;28;20688;-84
2021/05/10 02:11:12;;;;;;;5.17;4.30;;;19.00;92.50;;;;;;4113074;28;20488;-84
2021/05/10 02:13:20;;;;;;;6.00;4.53;;;18.90;92.70;;;;;;4112163;28;20488;-84
2021/05/10 02:15:23;;;;;;;5.93;5.33;;;19.00;92.40;;;;;;4112430;28;20513;-83
2021/05/10 02:17:25;;;;;;;7.90;4.77;;;18.90;92.10;;;;;;4111170;28;20491;-83
2021/05/10 02:19:27;;;;;;;4.70;4.20;;;18.90;92.20;;;;;;4110769;28;20483;-84
2021/05/10 02:21:30;;;;;;;4.57;4.17;;;18.80;92.10;;;;;;4110941;28;20496;-84
2021/05/10 02:23:33;;;;;;;4.60;4.10;;;18.80;92.20;;;;;;4111496;28;20492;-83
2021/05/10 02:25:37;;;;;;;4.77;4.37;;;18.80;92.20;;;;;;4110442;28;20531;-84
2021/05/10 02:27:38;;;;;;;4.50;4.10;;;18.80;91.70;;;;;;4112028;28;20492;-84
2021/05/10 02:29:41;;;;;;;4.40;4.00;;;18.90;91.30;;;;;;4113318;28;20506;-84
2021/05/10 02:31:43;;;;;;;6.43;4.33;;;18.80;91.50;;;;;;4112742;28;20495;-83
2021/05/10 02:33:45;;;;;;;4.23;3.93;;;18.80;91.40;;;;;;4111560;28;21035;-83
2021/05/10 02:35:48;;;;;;;4.50;4.10;;;18.90;91.00;;;;;;4111234;28;20491;-83
2021/05/10 02:37:50;;;;;;;5.30;3.97;;;18.90;90.80;;;;;;4111246;28;20496;-84
2021/05/10 02:39:52;;;;;;;4.07;3.60;;;18.90;90.00;;;;;;4112334;28;20562;-83
2021/05/10 02:41:54;;;;;;;5.50;3.80;;;18.90;89.80;;;;;;4111446;28;20500;-83
2021/05/10 02:43:56;;;;;;;4.63;4.23;;;19.00;89.30;;;;;;4111612;28;20895;-83
2021/05/10 02:45:59;;;;;;;4.70;4.00;;;19.00;89.20;;;;;;4108724;28;20497;-82
2021/05/10 02:48:02;;;;;;;5.70;3.50;;;19.00;89.30;;;;;;4103574;28;20559;-83
2021/05/10 02:50:06;;;;;;;5.90;3.73;;;18.90;89.40;;;;;;4105712;28;21118;-83
2021/05/10 02:52:08;;;;;;;4.03;3.70;;;18.90;89.20;;;;;;4110017;28;20595;-84
2021/05/10 02:54:10;;;;;;;6.40;4.40;;;18.80;89.70;;;;;;4110884;28;20699;-83
2021/05/10 02:56:12;;;;;;;6.20;3.47;;;18.90;89.50;;;;;;4110921;28;20499;-83
2021/05/10 02:58:17;;;;;;;4.07;3.77;;;18.90;89.50;;;;;;4109672;28;20488;-83
2021/05/10 03:00:22;;;;;;;4.17;3.77;;;18.90;89.30;;;;;;4110589;28;20483;-83
2021/05/10 03:02:24;;;;;;;4.70;3.93;;;18.90;89.20;;;;;;4110567;28;21129;-83
2021/05/10 03:04:27;;;;;;;4.83;4.00;;;18.80;89.00;;;;;;4109670;28;21048;-82
2021/05/10 03:06:29;;;;;;;6.33;3.73;;;18.80;89.10;;;;;;4112511;28;20504;-82
2021/05/10 03:08:31;;;;;;;4.53;4.13;;;18.80;89.00;;;;;;4110859;28;20514;-83
2021/05/10 03:10:33;;;;;;;5.10;4.23;;;18.80;89.20;;;;;;4110729;28;20492;-82
2021/05/10 03:12:36;;;;;;;5.03;3.90;;;18.80;89.40;;;;;;4111246;28;20499;-82
2021/05/10 03:14:38;;;;;;;7.17;4.07;;;18.70;89.60;;;;;;4109255;28;20495;-83
2021/05/10 03:16:40;;;;;;;4.20;3.80;;;18.70;89.80;;;;;;4106922;28;20492;-83
2021/05/10 03:18:43;;;;;;;6.10;3.93;;;18.70;90.00;;;;;;4106541;28;20493;-82
2021/05/10 03:20:45;;;;;;;4.33;3.93;;;18.70;89.80;;;;;;4110116;28;20579;-83
2021/05/10 03:22:50;;;;;;;3.87;3.57;;;18.70;89.80;;;;;;4110184;28;20694;-82
2021/05/10 03:24:52;;;;;;;4.90;4.07;;;18.80;89.60;;;;;;4111337;28;20507;-83
2021/05/10 03:26:54;;;;;;;5.53;4.13;;;18.70;89.50;;;;;;4110566;28;20854;-82
2021/05/10 03:28:56;;;;;;;4.83;4.10;;;18.90;89.00;;;;;;4110288;28;20499;-83
2021/05/10 03:30:58;;;;;;;4.07;3.77;;;18.80;89.40;;;;;;4110569;28;20538;-82
2021/05/10 03:33:00;;;;;;;3.97;3.63;;;18.80;89.20;;;;;;4111333;28;21040;-83
2021/05/10 03:35:04;;;;;;;5.70;3.67;;;18.90;88.80;;;;;;4110111;28;20502;-83
2021/05/10 03:37:06;;;;;;;4.00;3.60;;;18.90;88.70;;;;;;4111701;28;20492;-82
2021/05/10 03:39:08;;;;;;;3.90;3.60;;;18.80;88.90;;;;;;4110816;28;20495;-85
2021/05/10 03:41:10;;;;;;;4.53;4.13;;;18.80;89.00;;;;;;4109828;28;20902;-83
2021/05/10 03:43:12;;;;;;;5.03;4.07;;;18.90;88.70;;;;;;4111769;28;21022;-82
2021/05/10 03:45:15;;;;;;;4.37;3.97;;;18.90;88.70;;;;;;4111230;28;20495;-83
2021/05/10 03:47:17;;;;;;;4.20;3.73;;;18.80;89.00;;;;;;4113407;28;20498;-84
2021/05/10 03:49:19;;;;;;;4.10;3.80;;;18.70;89.40;;;;;;4111535;28;20484;-83
2021/05/10 03:51:22;;;;;;;4.13;3.70;;;18.70;89.60;;;;;;4110004;28;20510;-83
2021/05/10 03:53:24;;;;;;;4.77;3.77;;;18.70;89.60;;;;;;4111788;28;20558;-84
2021/05/10 03:55:26;;;;;;;4.20;3.77;;;18.70;89.70;;;;;;4111437;28;20534;-84
2021/05/10 03:57:28;;;;;;;5.60;3.93;;;18.60;89.80;;;;;;4111668;28;20492;-83
2021/05/10 03:59:30;;;;;;;4.40;4.00;;;18.50;90.30;;;;;;4110773;28;20504;-83
2021/05/10 04:01:31;;;;;;;4.47;4.00;;;18.50;90.30;;;;;;4109018;28;20500;-84
2021/05/10 04:03:37;;;;;;;4.80;4.40;;;18.50;90.10;;;;;;4110929;28;20504;-83
2021/05/10 04:05:59;;;;;;;4.10;3.70;;;18.50;90.00;;;;;;4111378;28;20500;-83
2021/05/10 04:08:08;;;;;;;5.13;4.27;;;18.50;90.30;;;;;;4113182;28;20590;-83
2021/05/10 04:10:35;;;;;;;4.10;3.80;;;18.50;90.30;;;;;;4114305;28;20491;-83
2021/05/10 04:14:57;;;;;;;4.20;3.80;;;18.40;90.50;;;;;;4113371;28;21444;-83
2021/05/10 04:16:59;;;;;;;4.70;4.30;;;18.50;90.30;;;;;;4115803;28;20584;-83
2021/05/10 04:19:01;;;;;;;4.37;3.97;;;18.50;90.30;;;;;;4110270;28;20614;-83
2021/05/10 04:21:03;;;;;;;6.23;3.90;;;18.50;90.10;;;;;;4114068;28;20893;-83
2021/05/10 04:23:06;;;;;;;4.17;3.77;;;18.50;90.10;;;;;;4113097;28;20499;-83
2021/05/10 04:25:09;;;;;;;4.10;3.70;;;18.50;90.00;;;;;;4114653;28;20499;-84
2021/05/10 04:27:10;;;;;;;5.83;3.83;;;18.50;89.90;;;;;;4108129;28;20538;-83
2021/05/10 04:29:12;;;;;;;5.17;4.10;;;18.50;90.00;;;;;;4112542;28;21248;-84
2021/05/10 04:31:14;;;;;;;4.17;3.77;;;18.50;89.90;;;;;;4112908;28;20549;-84
2021/05/10 04:33:16;;;;;;;3.83;3.43;;;18.50;89.90;;;;;;4113485;28;20500;-83
2021/05/10 04:35:19;;;;;;;3.87;3.53;;;18.60;89.50;;;;;;4114263;28;20502;-83
2021/05/10 04:37:21;;;;;;;5.07;3.97;;;18.60;89.60;;;;;;4110225;28;20507;-83
2021/05/10 04:39:23;;;;;;;5.80;4.27;;;18.60;89.70;;;;;;4112958;28;20498;-83
2021/05/10 04:41:25;;;;;;;4.50;3.60;;;18.60;89.60;;;;;;4113672;28;20563;-84
2021/05/10 04:43:27;;;;;;;5.47;3.70;;;18.60;89.80;;;;;;4114042;28;20488;-82
2021/05/10 04:45:29;;;;;;;4.50;4.10;;;18.60;89.80;;;;;;4113470;28;20877;-82
2021/05/10 04:47:36;;;;;;;4.30;3.90;;;18.60;89.90;;;;;;4115131;28;20562;-84
2021/05/10 04:49:39;;;;;;;4.77;4.37;;;18.60;90.00;;;;;;4112090;28;20506;-83
2021/05/10 04:51:42;;;;;;;3.80;3.40;;;18.60;89.90;;;;;;4112071;28;20937;-83
2021/05/10 04:53:44;;;;;;;5.60;4.30;;;18.60;89.90;;;;;;4121098;28;20498;-83
2021/05/10 04:55:47;;;;;;;4.00;3.60;;;18.60;90.00;;;;;;4123338;28;20496;-83
2021/05/10 04:57:49;;;;;;;4.90;3.60;;;18.70;89.80;;;;;;4122368;28;21507;-83
2021/05/10 04:59:51;;;;;;;4.03;3.53;;;18.70;89.80;;;;;;4116883;28;20491;-83
2021/05/10 05:01:53;;;;;;;6.27;4.00;;;18.70;89.80;;;;;;4117491;28;20575;-83
2021/05/10 05:03:54;;;;;;;4.40;4.00;;;18.70;89.60;;;;;;4116874;28;20493;-83
2021/05/10 05:05:56;;;;;;;5.17;3.83;;;18.70;89.60;;;;;;4119507;28;20526;-83
2021/05/10 05:07:58;;;;;;;4.50;4.10;;;18.80;89.50;;;;;;4120834;28;20495;-83
2021/05/10 05:10:00;;;;;;;6.30;4.03;;;18.80;89.50;;;;;;4121093;28;20519;-83
2021/05/10 05:12:03;;;;;;;4.03;3.63;;;18.80;89.60;;;;;;4121900;28;20506;-83
2021/05/10 05:14:05;;;;;;;5.17;3.90;;;18.80;89.70;;;;;;4122005;28;20501;-84
2021/05/10 05:16:07;;;;;;;4.23;3.83;;;18.80;89.50;;;;;;4119671;28;20488;-83
2021/05/10 05:18:09;;;;;;;5.13;4.43;;;18.90;89.30;;;;;;4119385;28;20531;-83
2021/05/10 05:20:12;;;;;;;4.17;3.77;;;18.90;89.20;;;;;;4120827;28;20979;-83
2021/05/10 05:22:14;;;;;;;4.23;3.83;;;18.90;89.40;;;;;;4121498;28;20524;-83
2021/05/10 05:24:16;;;;;;;4.60;3.70;;;18.90;89.30;;;;;;4119573;28;20495;-83
2021/05/10 05:26:17;;;;;;;4.70;4.10;;;19.00;89.10;;;;;;4120659;28;20527;-83
2021/05/10 05:28:20;;;;;;;4.97;3.83;;;19.10;88.90;;;;;;4117927;28;20529;-83
2021/05/10 05:30:22;;;;;;;4.50;4.10;;;19.10;89.00;;;;;;4120630;28;20500;-83
2021/05/10 05:32:25;;;;;;;6.37;3.90;;;19.10;89.20;;;;;;4120141;28;20519;-83
2021/05/10 05:34:27;;;;;;;6.57;3.50;;;19.10;88.80;;;;;;4119185;28;20867;-83
2021/05/10 05:36:30;;;;;;;4.10;3.70;;;19.10;88.90;;;;;;4121556;28;20492;-83
2021/05/10 05:38:35;;;;;;;4.93;4.30;;;19.20;89.00;;;;;;4119966;28;20496;-83
2021/05/10 05:40:37;;;;;;;4.57;3.60;;;19.20;89.00;;;;;;4119772;28;20502;-83
2021/05/10 05:42:39;;;;;;;4.70;3.80;;;19.20;89.10;;;;;;4120484;28;20524;-83
2021/05/10 05:44:47;;;;;;;4.73;4.23;;;19.20;89.10;;;;;;4119780;28;20576;-83
2021/05/10 05:46:50;;;;;;;4.73;3.70;;;19.10;89.30;;;;;;4121345;28;21094;-83
2021/05/10 05:48:52;;;;;;;4.23;3.80;;;19.10;89.60;;;;;;4121701;28;20506;-84
2021/05/10 05:50:54;;;;;;;4.60;4.20;;;19.10;89.70;;;;;;4121258;28;20849;-83
2021/05/10 05:52:56;;;;;;;4.00;3.57;;;19.10;89.70;;;;;;4121001;28;20483;-83
2021/05/10 05:54:58;;;;;;;5.37;4.10;;;19.10;90.00;;;;;;4120220;28;20499;-83
2021/05/10 05:57:00;;;;;;;4.27;3.87;;;19.20;89.70;;;;;;4121634;28;20978;-84
2021/05/10 05:59:03;;;;;;;4.17;3.77;;;19.20;89.80;;;;;;4119916;28;20496;-83
2021/05/10 06:01:06;;;;;;;5.73;4.10;;;19.10;90.40;;;;;;4114393;28;20480;-83
2021/05/10 06:03:08;;;;;;;8.13;4.20;;;19.10;90.20;;;;;;4111375;28;20499;-83
2021/05/10 06:07:39;;;;;;;5.13;3.80;;;19.10;90.80;;;;;;4210303;23;21274;-81
2021/05/10 06:09:40;;;;;;;4.20;3.80;;;19.10;90.90;;;;;;4105827;28;20829;-81
2021/05/10 06:11:42;;;;;;;5.10;3.77;;;19.10;91.10;;;;;;4106115;28;20505;-81
2021/05/10 06:13:44;;;;;;;5.23;4.03;;;19.10;91.10;;;;;;4107399;28;20497;-81
2021/05/10 06:15:46;;;;;;;4.80;4.00;;;19.10;91.50;;;;;;4106431;28;20496;-81
2021/05/10 06:17:50;;;;;;;5.77;4.10;;;19.10;91.20;;;;;;4107752;28;20526;-81
2021/05/10 06:19:52;;;;;;;4.20;3.70;;;19.10;91.50;;;;;;4104700;28;21030;-81
2021/05/10 06:21:55;;;;;;;5.10;3.90;;;19.10;91.20;;;;;;4105152;28;20484;-81
2021/05/10 06:23:57;;;;;;;4.13;3.77;;;19.20;91.30;;;;;;4107432;28;20489;-81
2021/05/10 06:26:00;;;;;;;5.33;4.17;;;19.20;91.20;;;;;;4107538;28;20505;-81
2021/05/10 06:28:02;;;;;;;4.67;3.77;;;19.30;91.40;;;;;;4110175;28;20504;-81
2021/05/10 06:30:05;;;;;;;4.87;3.80;;;19.30;91.60;;;;;;4105311;28;20484;-82
2021/05/10 06:32:07;;;;;;;5.30;4.00;;;19.20;91.70;;;;;;4113218;28;20503;-82
2021/05/10 06:34:09;;;;;;;5.30;3.80;;;19.20;91.70;;;;;;4108978;28;20496;-81
2021/05/10 06:36:11;;;;;;;5.47;3.87;;;19.20;91.70;;;;;;4109522;28;20501;-82
2021/05/10 06:38:14;;;;;;;4.67;4.27;;;19.30;91.50;;;;;;4112252;28;20492;-81
2021/05/10 06:40:16;;;;;;;4.80;4.40;;;19.30;91.70;;;;;;4106970;28;20504;-81
2021/05/10 06:42:18;;;;;;;4.70;4.13;;;19.30;91.90;;;;;;4108462;28;20496;-81
2021/05/10 06:44:20;;;;;;;5.10;4.60;;;19.30;92.00;;;;;;4107691;28;20484;-82
2021/05/10 06:46:23;;;;;;;5.33;3.73;;;19.30;92.10;;;;;;4107924;28;20510;-82
2021/05/10 06:48:27;;;;;;;4.93;4.10;;;19.20;92.50;;;;;;4108351;28;20835;-82
2021/05/10 06:50:30;;;;;;;8.03;3.97;;;19.20;92.30;;;;;;4109761;28;20894;-80
2021/05/10 06:52:32;;;;;;;6.57;4.10;;;19.30;92.70;;;;;;4109250;28;21016;-80
2021/05/10 06:54:36;;;;;;;4.27;3.87;;;19.30;92.70;;;;;;4107061;28;20527;-80
2021/05/10 06:56:38;;;;;;;8.20;4.30;;;19.30;92.80;;;;;;4108929;28;20568;-80
2021/05/10 06:58:39;;;;;;;6.60;4.57;;;19.30;93.10;;;;;;4107647;28;20504;-80
2021/05/10 07:00:41;;;;;;;18.97;5.93;;;19.40;92.90;;;;;;4110401;28;20869;-80
2021/05/10 07:02:43;;;;;;;4.63;4.23;;;19.40;93.10;;;;;;4107211;28;20495;-80
2021/05/10 07:04:45;;;;;;;5.17;4.33;;;19.30;93.10;;;;;;4104857;28;20519;-80
2021/05/10 07:06:48;;;;;;;4.47;4.07;;;19.40;93.10;;;;;;4105627;28;20581;-80
2021/05/10 07:08:49;;;;;;;7.60;4.57;;;19.40;93.30;;;;;;4105487;28;20497;-80
2021/05/10 07:10:52;;;;;;;5.40;4.40;;;19.40;93.30;;;;;;4106597;28;20504;-80
2021/05/10 07:12:54;;;;;;;7.50;5.00;;;19.40;93.30;;;;;;4103898;28;20504;-80
2021/05/10 07:14:56;;;;;;;4.97;4.53;;;19.50;93.00;;;;;;4108344;28;20500;-80
2021/05/10 07:16:58;;;;;;;4.50;3.87;;;19.60;92.80;;;;;;4106937;28;20489;-80
2021/05/10 07:19:00;;;;;;;4.43;4.00;;;19.70;92.50;;;;;;4105408;28;20512;-80
2021/05/10 07:21:02;;;;;;;5.77;4.00;;;19.70;92.60;;;;;;4104890;28;20519;-80
2021/05/10 07:23:06;;;;;;;5.40;3.97;;;19.70;92.40;;;;;;4104123;28;21449;-80
2021/05/10 07:25:08;;;;;;;4.80;4.30;;;19.80;92.50;;;;;;4105969;28;20499;-80
2021/05/10 07:27:10;;;;;;;6.30;4.40;;;20.00;92.10;;;;;;4110695;28;20857;-80
2021/05/10 07:29:12;;;;;;;4.80;4.30;;;19.90;92.10;;;;;;4103929;28;20489;-80
2021/05/10 07:31:14;;;;;;;5.60;4.20;;;20.00;92.30;;;;;;4103721;28;20851;-80
2021/05/10 07:33:16;;;;;;;5.90;3.93;;;19.90;92.10;;;;;;4105996;28;20508;-80
2021/05/10 07:35:18;;;;;;;3.67;3.37;;;20.00;92.30;;;;;;4104654;28;20499;-80
2021/05/10 07:37:20;;;;;;;6.43;4.10;;;20.00;92.40;;;;;;4105596;28;20504;-80
2021/05/10 07:39:23;;;;;;;5.13;4.63;;;20.00;92.20;;;;;;4100726;28;20501;-80
2021/05/10 07:41:25;;;;;;;5.53;4.60;;;20.10;92.50;;;;;;4105930;28;20485;-80
2021/05/10 07:43:27;;;;;;;4.23;3.83;;;20.10;91.80;;;;;;4111964;28;20505;-81
2021/05/10 07:45:29;;;;;;;4.60;4.20;;;20.10;92.40;;;;;;4114705;28;20492;-80
2021/05/10 07:47:31;;;;;;;5.27;4.20;;;20.30;91.60;;;;;;4120552;28;20508;-80
2021/05/10 07:49:33;;;;;;;4.53;4.13;;;20.20;92.20;;;;;;4119359;28;20500;-80
2021/05/10 07:51:35;;;;;;;4.97;4.47;;;20.30;92.00;;;;;;4122253;28;20497;-80
2021/05/10 07:53:36;;;;;;;5.00;4.50;;;20.30;92.10;;;;;;4122671;28;20495;-80
2021/05/10 07:55:40;;;;;;;4.40;4.00;;;20.50;92.10;;;;;;4119535;28;20491;-80
2021/05/10 07:57:42;;;;;;;6.97;4.80;;;20.70;91.30;;;;;;4119128;28;20492;-79
2021/05/10 07:59:46;;;;;;;6.63;4.10;;;20.70;91.10;;;;;;4116947;28;20589;-80
2021/05/10 08:01:49;;;;;;;4.90;3.93;;;20.80;90.70;;;;;;4113938;28;21051;-80
2021/05/10 08:03:51;;;;;;;4.70;4.20;;;20.90;90.60;;;;;;4111986;28;20846;-81
2021/05/10 08:05:53;;;;;;;4.97;3.83;;;20.90;91.00;;;;;;4109970;28;20488;-80
2021/05/10 08:07:54;;;;;;;4.60;4.20;;;20.90;90.50;;;;;;4110943;28;20876;-80
2021/05/10 08:09:56;;;;;;;6.73;4.23;;;20.90;91.00;;;;;;4109722;28;21058;-80
2021/05/10 08:11:59;;;;;;;5.53;4.13;;;21.00;91.20;;;;;;4112473;28;20499;-80
2021/05/10 08:14:01;;;;;;;5.47;4.17;;;21.20;90.70;;;;;;4112768;28;20493;-80
2021/05/10 08:16:04;;;;;;;6.93;4.33;;;21.40;90.20;;;;;;4111194;28;20496;-80
2021/05/10 08:18:06;;;;;;;6.40;4.23;;;21.50;89.70;;;;;;4112746;28;20497;-80
2021/05/10 08:20:15;;;;;;;4.07;3.77;;;21.60;89.10;;;;;;4111720;28;20591;-80
2021/05/10 08:22:17;;;;;;;4.50;4.10;;;21.70;89.10;;;;;;4110431;28;20827;-80
2021/05/10 08:24:19;;;;;;;5.10;4.03;;;21.70;89.40;;;;;;4112808;28;20519;-80
2021/05/10 08:26:21;;;;;;;4.67;4.27;;;21.80;89.10;;;;;;4113406;28;20496;-80
2021/05/10 08:28:23;;;;;;;7.50;4.50;;;21.90;88.90;;;;;;4110824;28;20503;-80
2021/05/10 08:30:25;;;;;;;5.17;4.57;;;22.30;87.90;;;;;;4108577;28;20491;-80
2021/05/10 08:32:27;;;;;;;6.27;3.97;;;22.40;87.10;;;;;;4110340;28;20546;-80
2021/05/10 08:34:30;;;;;;;5.20;4.37;;;22.70;85.70;;;;;;4107751;28;20524;-80
2021/05/10 08:36:31;;;;;;;4.90;4.40;;;22.90;84.80;;;;;;4112220;28;20523;-80
2021/05/10 08:38:33;;;;;;;4.40;4.00;;;23.00;85.40;;;;;;4108793;28;20493;-80
2021/05/10 08:40:35;;;;;;;5.00;3.70;;;23.20;84.30;;;;;;4110150;28;20504;-80
2021/05/10 08:42:38;;;;;;;6.10;4.17;;;23.40;83.50;;;;;;4110674;28;20506;-80
2021/05/10 08:44:42;;;;;;;6.93;3.90;;;23.40;83.10;;;;;;4110733;28;20511;-80
2021/05/10 08:46:44;;;;;;;5.63;4.10;;;23.50;81.40;;;;;;4110329;28;20863;-80
2021/05/10 08:48:46;;;;;;;6.80;4.20;;;23.50;81.70;;;;;;4108692;28;21213;-80
2021/05/10 08:50:48;;;;;;;4.80;3.83;;;23.60;81.00;;;;;;4108935;28;20495;-80
2021/05/10 08:52:50;;;;;;;5.60;4.50;;;23.60;81.00;;;;;;4112030;28;20500;-80
2021/05/10 08:54:52;;;;;;;6.03;3.93;;;23.60;81.30;;;;;;4110541;28;20507;-80
2021/05/10 08:56:55;;;;;;;5.20;4.20;;;23.80;80.30;;;;;;4109611;28;20509;-80
2021/05/10 08:58:57;;;;;;;6.33;3.87;;;23.90;80.50;;;;;;4110589;28;20496;-80
2021/05/10 09:01:00;;;;;;;4.93;3.77;;;23.90;80.50;;;;;;4110946;28;20523;-80
2021/05/10 09:03:11;;;;;;;5.20;3.90;;;24.10;80.20;;;;;;4110316;28;20516;-80
2021/05/10 09:05:15;;;;;;;5.90;3.97;;;24.30;80.00;;;;;;4110208;28;20504;-80
2021/05/10 09:07:19;;;;;;;5.87;4.10;;;24.30;79.70;;;;;;4110746;28;20519;-80
2021/05/10 09:09:20;;;;;;;5.27;4.00;;;24.30;78.90;;;;;;4112180;28;20484;-80
2021/05/10 09:11:29;;;;;;;6.77;4.20;;;24.20;79.50;;;;;;4109110;28;21005;-80
2021/05/10 09:13:39;;;;;;;6.07;3.83;;;24.10;79.60;;;;;;4110236;28;20576;-80
2021/05/10 09:15:41;;;;;;;4.10;3.70;;;24.10;80.10;;;;;;4110397;28;20505;-79
2021/05/10 09:17:48;;;;;;;5.17;4.13;;;24.20;79.30;;;;;;4108895;28;20503;-80
2021/05/10 09:19:56;;;;;;;7.00;3.73;;;24.30;78.60;;;;;;4108406;28;20555;-79
2021/05/10 09:21:58;;;;;;;4.13;3.30;;;24.30;78.90;;;;;;4107964;28;20587;-80
2021/05/10 09:24:00;;;;;;;3.17;2.87;;;24.30;77.60;;;;;;4109674;28;20525;-80
2021/05/10 09:26:02;;;;;;;4.50;3.40;;;24.30;76.60;;;;;;4111434;28;21380;-80
2021/05/10 09:28:15;;;;;;;3.30;3.00;;;24.30;76.50;;;;;;4113107;28;20492;-80
2021/05/10 09:30:20;;;;;;;3.77;2.93;;;24.50;76.10;;;;;;4111372;28;20504;-80
2021/05/10 09:32:29;;;;;;;3.20;2.90;;;24.70;75.60;;;;;;4108255;28;20501;-80
2021/05/10 09:34:33;;;;;;;3.37;3.07;;;24.90;75.50;;;;;;4110298;28;20499;-80
2021/05/10 09:36:37;;;;;;;3.70;3.30;;;25.10;75.50;;;;;;4108952;28;20495;-80
2021/05/10 09:38:39;;;;;;;4.03;3.60;;;25.20;75.40;;;;;;4111045;28;20555;-80
2021/05/10 09:40:48;;;;;;;3.30;3.00;;;25.20;75.40;;;;;;4109845;28;20497;-80
2021/05/10 09:42:51;;;;;;;6.77;3.60;;;25.20;74.90;;;;;;4111994;28;20899;-80
2021/05/10 09:44:55;;;;;;;4.40;3.03;;;25.10;75.10;;;;;;4111243;28;20518;-80
2021/05/10 09:47:02;;;;;;;3.60;3.30;;;25.10;74.30;;;;;;4108591;28;20507;-80
2021/05/10 09:49:04;;;;;;;3.40;3.10;;;25.10;74.90;;;;;;4107789;28;20488;-80
2021/05/10 09:51:09;;;;;;;3.90;3.50;;;25.20;75.00;;;;;;4113235;28;20510;-80
2021/05/10 09:53:15;;;;;;;4.57;3.27;;;25.30;74.40;;;;;;4110135;28;20513;-80
2021/05/10 09:55:17;;;;;;;7.53;2.90;;;25.40;74.00;;;;;;4108883;28;20596;-80
2021/05/10 09:57:19;;;;;;;3.40;3.10;;;25.50;74.20;;;;;;4110534;28;20491;-80
2021/05/10 09:59:21;;;;;;;7.07;3.40;;;25.30;74.30;;;;;;4108857;28;20839;-80
2021/05/10 10:01:24;;;;;;;4.83;3.23;;;25.20;74.40;;;;;;4109219;28;20502;-80
2021/05/10 10:03:29;;;;;;;3.33;3.03;;;25.40;74.30;;;;;;4107175;28;20496;-80
2021/05/10 10:05:32;;;;;;;5.13;3.30;;;25.60;73.70;;;;;;4106728;28;20512;-80
2021/05/10 10:07:38;;;;;;;3.53;2.77;;;25.70;72.90;;;;;;4108178;28;20506;-80
2021/05/10 10:09:40;;;;;;;5.10;3.70;;;25.80;73.80;;;;;;4108056;28;20876;-80
2021/05/10 10:11:42;;;;;;;4.13;3.73;;;25.90;74.10;;;;;;4108078;28;20508;-80
2021/05/10 10:13:44;;;;;;;4.87;3.60;;;26.20;72.70;;;;;;4107496;28;20504;-79
2021/05/10 10:15:50;;;;;;;3.90;3.50;;;26.20;72.90;;;;;;4107451;28;20925;-80
2021/05/10 10:17:52;;;;;;;3.67;3.37;;;26.20;72.70;;;;;;4109910;28;21045;-80
2021/05/10 10:19:54;;;;;;;4.20;3.70;;;26.40;72.10;;;;;;4109598;28;20548;-80
2021/05/10 10:21:56;;;;;;;4.07;3.47;;;26.30;71.60;;;;;;4108715;28;20499;-80
2021/05/10 10:24:01;;;;;;;4.20;3.33;;;26.40;71.90;;;;;;4107922;28;20496;-80
2021/05/10 10:26:26;;;;;;;4.97;3.30;;;26.50;71.90;;;;;;4109434;28;20497;-80
2021/05/10 10:28:28;;;;;;;3.70;3.40;;;26.60;71.60;;;;;;4110770;28;20501;-80
2021/05/10 10:30:31;;;;;;;3.57;3.27;;;26.40;72.10;;;;;;4109435;28;21365;-80
2021/05/10 10:32:35;;;;;;;3.93;3.57;;;26.50;71.40;;;;;;4108741;28;20504;-80
2021/05/10 10:34:44;;;;;;;3.90;3.50;;;26.60;71.00;;;;;;4109683;28;20525;-80
2021/05/10 10:36:52;;;;;;;3.40;3.10;;;26.40;71.10;;;;;;4107726;28;20620;-80
2021/05/10 10:39:10;;;;;;;5.37;3.23;;;26.30;71.50;;;;;;4107689;28;20591;-80
2021/05/10 10:41:23;;;;;;;3.77;3.40;;;26.60;71.30;;;;;;4105221;28;20506;-80
2021/05/10 10:43:27;;;;;;;3.53;3.03;;;26.90;70.90;;;;;;4107100;28;20502;-80
2021/05/10 10:45:30;;;;;;;4.47;3.17;;;26.90;70.20;;;;;;4105711;28;20491;-80
2021/05/10 10:47:44;;;;;;;4.60;3.37;;;27.10;70.40;;;;;;4108520;28;20499;-80